createdAt,value
2023-12-23T00:00:05.821Z,0.58
2023-12-23T00:01:09.398Z,0.58
2023-12-23T00:02:12.648Z,0.82
2023-12-23T00:03:16.227Z,0.68
2023-12-23T00:04:19.320Z,1.32
2023-12-23T00:05:22.442Z,1.25
2023-12-23T00:06:25.534Z,0.97
2023-12-23T00:07:28.521Z,0.80
2023-12-23T00:08:31.560Z,0.78
2023-12-23T00:09:34.555Z,0.58
2023-12-23T00:10:37.567Z,0.48
2023-12-23T00:11:40.577Z,0.50
2023-12-23T00:12:43.559Z,0.50
2023-12-23T00:13:46.570Z,0.70
2023-12-23T00:14:49.546Z,0.53
2023-12-23T00:15:52.554Z,0.48
2023-12-23T00:16:55.588Z,0.30
2023-12-23T00:17:59.228Z,0.35
2023-12-23T00:19:02.511Z,0.48
2023-12-23T00:20:06.671Z,0.58
2023-12-23T00:21:11.532Z,0.48
2023-12-23T00:22:14.886Z,0.52
2023-12-23T00:23:17.974Z,0.45
2023-12-23T00:24:20.992Z,0.50
2023-12-23T00:25:24.011Z,0.68
2023-12-23T00:26:26.999Z,0.58
2023-12-23T00:27:29.971Z,0.53
2023-12-23T00:28:33.014Z,0.52
2023-12-23T00:29:36.035Z,0.55
2023-12-23T00:30:39.109Z,0.53
2023-12-23T00:31:42.116Z,0.62
2023-12-23T00:32:46.163Z,0.60
2023-12-23T00:33:51.312Z,0.63
2023-12-23T00:34:54.492Z,0.60
2023-12-23T00:35:57.500Z,0.52
2023-12-23T00:37:00.531Z,0.60
2023-12-23T00:38:03.518Z,0.52
2023-12-23T00:39:06.543Z,0.55
2023-12-23T00:40:09.826Z,1.03
2023-12-23T00:41:13.536Z,1.62
2023-12-23T00:42:16.643Z,2.83
2023-12-23T00:43:19.618Z,1.77
2023-12-23T00:44:22.587Z,3.85
2023-12-23T00:45:25.593Z,3.00
2023-12-23T00:46:31.213Z,1.63
2023-12-23T00:47:37.441Z,2.27
2023-12-23T00:48:42.092Z,2.88
2023-12-23T00:49:46.038Z,3.15
2023-12-23T00:50:49.093Z,3.77
2023-12-23T00:51:52.080Z,3.45
2023-12-23T00:52:55.081Z,3.07
2023-12-23T00:53:58.112Z,3.37
2023-12-23T00:55:01.173Z,3.10
2023-12-23T00:56:04.435Z,3.53
2023-12-23T00:57:07.464Z,4.85
2023-12-23T00:58:10.506Z,5.07
2023-12-23T00:59:13.533Z,4.08
2023-12-23T01:00:16.944Z,5.92
2023-12-23T01:01:19.918Z,7.42
2023-12-23T01:02:22.947Z,7.60
2023-12-23T01:03:25.937Z,7.53
2023-12-23T01:04:28.904Z,6.25
2023-12-23T01:05:31.867Z,4.55
2023-12-23T01:06:34.915Z,3.60
2023-12-23T01:07:37.947Z,2.92
2023-12-23T01:08:40.938Z,2.58
2023-12-23T01:09:43.919Z,3.07
2023-12-23T01:10:47.085Z,3.15
2023-12-23T01:11:50.145Z,3.17
2023-12-23T01:12:53.298Z,3.55
2023-12-23T01:13:56.338Z,4.45
2023-12-23T01:14:59.340Z,3.42
2023-12-23T01:16:02.323Z,3.52
2023-12-23T01:17:05.555Z,2.65
2023-12-23T01:18:08.698Z,2.07
2023-12-23T01:19:11.845Z,1.73
2023-12-23T01:20:15.103Z,1.82
2023-12-23T01:21:21.490Z,2.08
2023-12-23T01:22:24.583Z,2.00
2023-12-23T01:23:27.677Z,1.43
2023-12-23T01:24:31.651Z,1.37
2023-12-23T01:25:34.703Z,1.48
2023-12-23T01:26:37.697Z,1.87
2023-12-23T01:27:40.669Z,2.30
2023-12-23T01:28:43.680Z,2.62
2023-12-23T01:29:47.114Z,1.83
2023-12-23T01:30:50.179Z,2.05
2023-12-23T01:31:53.224Z,1.25
2023-12-23T01:32:56.278Z,0.82
2023-12-23T01:33:59.308Z,1.37
2023-12-23T01:35:02.376Z,1.63
2023-12-23T01:36:06.932Z,0.85
2023-12-23T01:37:10.033Z,0.55
2023-12-23T01:38:13.047Z,0.60
2023-12-23T01:39:16.047Z,0.72
2023-12-23T01:40:19.855Z,0.58
2023-12-23T01:41:23.040Z,0.63
2023-12-23T01:42:26.080Z,0.50
2023-12-23T01:43:29.580Z,0.57
2023-12-23T01:44:32.581Z,0.48
2023-12-23T01:45:36.592Z,0.58
2023-12-23T01:46:40.380Z,0.60
2023-12-23T01:47:47.900Z,0.70
2023-12-23T01:48:51.435Z,0.65
2023-12-23T01:49:54.590Z,0.63
2023-12-23T01:50:58.645Z,0.55
2023-12-23T01:52:03.462Z,0.65
2023-12-23T01:53:06.634Z,0.45
2023-12-23T01:54:09.624Z,0.50
2023-12-23T01:55:12.891Z,0.52
2023-12-23T01:56:16.788Z,0.55
2023-12-23T01:57:19.899Z,0.48
2023-12-23T01:58:23.191Z,0.50
2023-12-23T01:59:26.432Z,0.70
2023-12-23T02:00:29.505Z,0.57
2023-12-23T02:01:33.798Z,0.63
2023-12-23T02:02:40.095Z,0.65
2023-12-23T02:03:43.607Z,0.73
2023-12-23T02:04:47.173Z,1.03
2023-12-23T02:05:50.388Z,1.40
2023-12-23T02:06:53.402Z,1.02
2023-12-23T02:07:56.502Z,0.93
2023-12-23T02:08:59.732Z,0.98
2023-12-23T02:10:04.198Z,0.82
2023-12-23T02:11:07.786Z,1.17
2023-12-23T02:12:23.722Z,1.77
2023-12-23T02:13:29.365Z,2.07
2023-12-23T02:14:49.165Z,1.45
2023-12-23T02:15:53.560Z,0.85
2023-12-23T02:16:57.096Z,0.45
2023-12-23T02:18:01.835Z,0.50
2023-12-23T02:19:04.985Z,0.42
2023-12-23T02:20:09.155Z,0.43
2023-12-23T02:21:12.219Z,0.45
2023-12-23T02:22:15.229Z,0.37
2023-12-23T02:23:20.834Z,0.40
2023-12-23T02:24:23.873Z,0.42
2023-12-23T02:25:26.846Z,0.55
2023-12-23T02:26:35.066Z,0.53
2023-12-23T02:27:46.153Z,0.37
2023-12-23T02:28:52.985Z,0.33
2023-12-23T02:29:58.253Z,0.43
2023-12-23T02:31:02.296Z,0.38
2023-12-23T02:32:07.656Z,0.43
2023-12-23T02:33:11.123Z,0.28
2023-12-23T02:34:14.972Z,0.30
2023-12-23T02:35:18.037Z,0.28
2023-12-23T02:36:22.629Z,0.22
2023-12-23T02:37:25.582Z,0.25
2023-12-23T02:38:28.588Z,0.23
2023-12-23T02:39:31.623Z,0.38
2023-12-23T02:40:35.432Z,0.38
2023-12-23T02:41:38.417Z,0.27
2023-12-23T02:42:41.489Z,0.17
2023-12-23T02:43:44.541Z,0.30
2023-12-23T02:44:47.540Z,0.37
2023-12-23T02:45:50.526Z,0.30
2023-12-23T02:46:53.550Z,0.30
2023-12-23T02:47:56.636Z,0.33
2023-12-23T02:49:01.308Z,0.25
2023-12-23T02:50:04.664Z,0.35
2023-12-23T02:51:07.680Z,0.37
2023-12-23T02:52:10.644Z,0.35
2023-12-23T02:53:13.742Z,0.45
2023-12-23T02:55:22.176Z,0.38
2023-12-23T02:56:25.216Z,0.35
2023-12-23T02:57:28.249Z,0.27
2023-12-23T02:58:31.222Z,0.28
2023-12-23T02:59:34.207Z,0.32
2023-12-23T03:00:37.205Z,0.30
2023-12-23T03:01:40.259Z,0.30
2023-12-23T03:02:43.284Z,0.37
2023-12-23T03:03:46.355Z,0.43
2023-12-23T03:04:49.404Z,0.28
2023-12-23T03:05:54.553Z,0.30
2023-12-23T03:06:57.544Z,0.38
2023-12-23T03:08:00.547Z,0.33
2023-12-23T03:09:04.109Z,0.27
2023-12-23T03:10:07.723Z,0.23
2023-12-23T03:11:10.928Z,0.33
2023-12-23T03:12:13.954Z,0.30
2023-12-23T03:13:16.941Z,0.23
2023-12-23T03:14:20.004Z,0.35
2023-12-23T03:15:23.174Z,0.35
2023-12-23T03:16:26.382Z,0.27
2023-12-23T03:17:29.425Z,0.18
2023-12-23T03:18:32.500Z,0.22
2023-12-23T03:19:35.630Z,0.30
2023-12-23T03:20:38.640Z,0.20
2023-12-23T03:21:45.673Z,0.20
2023-12-23T03:22:49.021Z,0.28
2023-12-23T03:23:52.277Z,0.25
2023-12-23T03:24:55.272Z,0.40
2023-12-23T03:25:58.248Z,0.43
2023-12-23T03:27:02.139Z,0.37
2023-12-23T03:28:05.416Z,0.43
2023-12-23T03:29:08.447Z,0.25
2023-12-23T03:30:12.746Z,0.35
2023-12-23T03:31:15.805Z,0.30
2023-12-23T03:32:18.973Z,0.25
2023-12-23T03:33:22.161Z,0.33
2023-12-23T03:34:25.158Z,0.25
2023-12-23T03:35:28.113Z,0.30
2023-12-23T03:36:31.101Z,0.32
2023-12-23T03:37:34.071Z,0.25
2023-12-23T03:38:37.092Z,0.20
2023-12-23T03:39:40.123Z,0.12
2023-12-23T03:40:43.115Z,0.25
2023-12-23T03:41:46.090Z,0.12
2023-12-23T03:42:49.358Z,0.15
2023-12-23T03:43:52.521Z,0.20
2023-12-23T03:44:55.532Z,0.18
2023-12-23T03:45:58.547Z,0.22
2023-12-23T03:47:01.650Z,0.13
2023-12-23T03:48:05.067Z,0.18
2023-12-23T03:49:08.125Z,0.30
2023-12-23T03:50:11.584Z,0.13
2023-12-23T03:51:14.669Z,0.20
2023-12-23T03:52:17.641Z,0.13
2023-12-23T03:53:20.706Z,0.15
2023-12-23T03:54:23.735Z,0.12
2023-12-23T03:55:32.807Z,0.10
2023-12-23T03:56:35.774Z,0.12
2023-12-23T03:57:38.944Z,0.08
2023-12-23T03:58:41.984Z,0.10
2023-12-23T03:59:44.978Z,0.15
2023-12-23T04:00:48.844Z,0.15
2023-12-23T04:01:51.898Z,0.15
2023-12-23T04:02:55.253Z,0.13
2023-12-23T04:03:58.470Z,0.20
2023-12-23T04:05:01.665Z,0.10
2023-12-23T04:06:05.066Z,0.10
2023-12-23T04:07:08.050Z,0.13
2023-12-23T04:08:11.143Z,0.10
2023-12-23T04:09:14.147Z,0.15
2023-12-23T04:10:18.528Z,0.22
2023-12-23T04:11:21.576Z,0.18
2023-12-23T04:12:24.554Z,0.13
2023-12-23T04:13:27.521Z,0.12
2023-12-23T04:14:30.502Z,0.23
2023-12-23T04:15:33.498Z,0.12
2023-12-23T04:16:40.475Z,0.18
2023-12-23T04:17:44.119Z,0.18
2023-12-23T04:18:47.220Z,0.15
2023-12-23T04:19:51.654Z,0.13
2023-12-23T04:20:54.705Z,0.25
2023-12-23T04:21:57.669Z,0.23
2023-12-23T04:23:00.635Z,0.18
2023-12-23T04:24:03.738Z,0.17
2023-12-23T04:25:07.187Z,0.18
2023-12-23T04:26:12.208Z,0.15
2023-12-23T04:27:15.255Z,0.18
2023-12-23T04:28:25.551Z,0.15
2023-12-23T04:29:30.720Z,0.15
2023-12-23T04:30:33.847Z,0.20
2023-12-23T04:31:37.259Z,0.20
2023-12-23T04:32:40.512Z,0.22
2023-12-23T04:33:43.701Z,0.30
2023-12-23T04:34:46.760Z,0.27
2023-12-23T04:35:50.827Z,0.27
2023-12-23T04:36:53.803Z,0.32
2023-12-23T04:37:56.786Z,0.27
2023-12-23T04:38:59.827Z,0.27
2023-12-23T04:40:02.786Z,0.42
2023-12-23T04:41:05.802Z,0.32
2023-12-23T04:42:08.771Z,0.30
2023-12-23T04:43:11.770Z,0.23
2023-12-23T04:44:15.914Z,0.23
2023-12-23T04:45:19.570Z,0.48
2023-12-23T04:46:22.621Z,0.37
2023-12-23T04:47:25.716Z,0.32
2023-12-23T04:48:28.772Z,0.40
2023-12-23T04:49:31.767Z,0.42
2023-12-23T04:50:34.802Z,0.40
2023-12-23T04:51:37.805Z,0.43
2023-12-23T04:52:40.816Z,0.53
2023-12-23T04:53:44.408Z,0.48
2023-12-23T04:54:47.505Z,0.48
2023-12-23T04:55:51.103Z,0.30
2023-12-23T04:56:54.539Z,0.30
2023-12-23T04:57:57.534Z,0.37
2023-12-23T04:59:00.557Z,0.30
2023-12-23T05:00:07.159Z,0.38
2023-12-23T05:01:10.367Z,0.57
2023-12-23T05:02:13.431Z,0.50
2023-12-23T05:03:16.561Z,0.40
2023-12-23T05:04:19.579Z,0.47
2023-12-23T05:05:22.708Z,0.63
2023-12-23T05:06:26.021Z,0.68
2023-12-23T05:07:29.028Z,0.63
2023-12-23T05:08:32.146Z,0.52
2023-12-23T05:09:36.267Z,0.35
2023-12-23T05:10:39.338Z,0.30
2023-12-23T05:11:42.352Z,0.62
2023-12-23T05:12:45.413Z,0.65
2023-12-23T05:13:48.403Z,0.47
2023-12-23T05:14:52.281Z,0.38
2023-12-23T05:15:55.277Z,0.47
2023-12-23T05:16:58.338Z,0.62
2023-12-23T05:18:01.477Z,0.47
2023-12-23T05:19:04.533Z,0.43
2023-12-23T05:20:11.680Z,0.47
2023-12-23T05:21:14.696Z,0.50
2023-12-23T05:22:17.700Z,0.35
2023-12-23T05:23:20.721Z,0.45
2023-12-23T05:24:23.792Z,0.45
2023-12-23T05:25:26.846Z,0.62
2023-12-23T05:26:29.911Z,0.40
2023-12-23T05:27:32.930Z,0.40
2023-12-23T05:28:35.897Z,0.35
2023-12-23T05:29:38.924Z,0.42
2023-12-23T05:30:41.949Z,0.37
2023-12-23T05:31:44.993Z,0.47
2023-12-23T05:32:48.255Z,0.40
2023-12-23T05:33:56.481Z,0.52
2023-12-23T05:34:59.773Z,0.52
2023-12-23T05:36:02.798Z,0.38
2023-12-23T05:37:05.807Z,0.38
2023-12-23T05:39:28.882Z,0.43
2023-12-23T05:40:31.891Z,0.43
2023-12-23T05:41:34.945Z,0.40
2023-12-23T05:43:58.161Z,0.38
2023-12-23T05:45:01.179Z,0.38
2023-12-23T05:46:04.586Z,0.43
2023-12-23T05:47:07.671Z,0.35
2023-12-23T05:48:10.809Z,0.43
2023-12-23T05:49:13.872Z,0.33
2023-12-23T05:50:17.102Z,0.43
2023-12-23T05:51:20.154Z,0.42
2023-12-23T05:52:23.131Z,0.40
2023-12-23T05:53:26.155Z,0.45
2023-12-23T05:54:29.241Z,0.45
2023-12-23T05:55:32.928Z,0.52
2023-12-23T05:56:36.019Z,0.47
2023-12-23T05:57:39.098Z,0.43
2023-12-23T05:58:42.089Z,0.37
2023-12-23T05:59:53.298Z,0.45
2023-12-23T06:00:56.630Z,0.58
2023-12-23T06:01:59.779Z,0.57
2023-12-23T06:03:02.748Z,0.70
2023-12-23T06:04:05.783Z,1.12
2023-12-23T06:05:08.796Z,2.75
2023-12-23T06:06:11.853Z,3.22
2023-12-23T06:07:15.910Z,1.50
2023-12-23T06:08:18.972Z,0.93
2023-12-23T06:09:22.012Z,0.75
2023-12-23T06:10:25.091Z,0.68
2023-12-23T06:11:28.161Z,0.80
2023-12-23T06:12:31.170Z,0.53
2023-12-23T06:13:34.156Z,0.72
2023-12-23T06:14:37.623Z,0.67
2023-12-23T06:15:40.610Z,0.62
2023-12-23T06:16:43.846Z,0.83
2023-12-23T06:17:49.514Z,0.75
2023-12-23T06:18:52.723Z,0.60
2023-12-23T06:19:55.769Z,0.58
2023-12-23T06:20:58.852Z,0.62
2023-12-23T06:22:01.859Z,0.50
2023-12-23T06:23:05.239Z,0.60
2023-12-23T06:24:08.856Z,0.55
2023-12-23T06:25:11.833Z,0.52
2023-12-23T06:26:14.906Z,0.62
2023-12-23T06:27:17.924Z,0.47
2023-12-23T06:28:20.902Z,0.62
2023-12-23T06:29:23.902Z,0.63
2023-12-23T06:30:26.936Z,0.53
2023-12-23T06:31:29.919Z,0.52
2023-12-23T06:32:33.105Z,0.63
2023-12-23T06:33:36.251Z,0.50
2023-12-23T06:34:39.318Z,0.63
2023-12-23T06:35:42.435Z,1.07
2023-12-23T06:36:45.455Z,1.12
2023-12-23T06:37:48.473Z,0.63
2023-12-23T06:38:51.456Z,0.70
2023-12-23T06:39:54.457Z,0.55
2023-12-23T06:40:57.547Z,0.38
2023-12-23T06:42:00.541Z,0.60
2023-12-23T06:43:43.078Z,0.50
2023-12-23T06:44:26.481Z,0.55
2023-12-23T06:45:29.480Z,0.52
2023-12-23T06:46:32.474Z,0.45
2023-12-23T06:47:35.670Z,0.55
2023-12-23T06:48:39.877Z,0.47
2023-12-23T06:49:43.204Z,0.47
2023-12-23T06:50:46.402Z,0.43
2023-12-23T06:51:49.460Z,0.37
2023-12-23T06:52:52.804Z,0.53
2023-12-23T06:53:57.610Z,0.50
2023-12-23T06:55:00.608Z,0.47
2023-12-23T06:56:07.753Z,0.45
2023-12-23T06:57:10.919Z,0.45
2023-12-23T06:58:13.949Z,0.47
2023-12-23T06:59:16.989Z,0.40
2023-12-23T07:00:20.030Z,0.47
2023-12-23T07:01:23.026Z,0.38
2023-12-23T07:02:26.749Z,0.40
2023-12-23T07:03:29.803Z,0.47
2023-12-23T07:04:33.073Z,0.48
2023-12-23T07:05:36.156Z,0.47
2023-12-23T07:06:39.170Z,0.50
2023-12-23T07:07:42.186Z,0.50
2023-12-23T07:08:45.211Z,0.50
2023-12-23T07:09:55.223Z,0.43
2023-12-23T07:11:04.676Z,0.57
2023-12-23T07:12:09.490Z,0.75
2023-12-23T07:13:12.635Z,0.70
2023-12-23T07:14:15.669Z,0.73
2023-12-23T07:15:18.665Z,0.60
2023-12-23T07:16:21.787Z,0.63
2023-12-23T07:17:35.425Z,0.97
2023-12-23T07:18:44.538Z,0.83
2023-12-23T07:19:47.980Z,0.82
2023-12-23T07:20:51.061Z,0.67
2023-12-23T07:21:54.945Z,0.50
2023-12-23T07:22:58.073Z,0.65
2023-12-23T07:24:01.085Z,0.67
2023-12-23T07:25:05.029Z,0.85
2023-12-23T07:26:15.101Z,0.70
2023-12-23T07:27:18.117Z,0.43
2023-12-23T07:28:21.215Z,0.58
2023-12-23T07:29:24.213Z,0.57
2023-12-23T07:30:27.292Z,0.93
2023-12-23T07:31:33.419Z,0.73
2023-12-23T07:32:36.616Z,0.70
2023-12-23T07:33:39.833Z,0.63
2023-12-23T07:34:42.893Z,0.70
2023-12-23T07:35:45.866Z,0.65
2023-12-23T07:36:48.863Z,0.55
2023-12-23T07:37:52.104Z,0.62
2023-12-23T07:38:55.289Z,0.73
2023-12-23T07:39:58.443Z,0.80
2023-12-23T07:41:01.497Z,0.85
2023-12-23T07:42:04.578Z,0.75
2023-12-23T07:43:07.623Z,0.73
2023-12-23T07:44:10.663Z,0.82
2023-12-23T07:45:13.658Z,0.68
2023-12-23T07:46:16.717Z,0.70
2023-12-23T07:47:19.752Z,0.72
2023-12-23T07:48:23.017Z,0.90
2023-12-23T07:49:26.086Z,0.75
2023-12-23T07:50:29.159Z,0.98
2023-12-23T07:51:32.175Z,0.80
2023-12-23T07:52:35.169Z,0.83
2023-12-23T07:53:38.252Z,0.90
2023-12-23T07:54:41.303Z,0.95
2023-12-23T07:55:44.287Z,0.93
2023-12-23T07:56:47.328Z,1.23
2023-12-23T07:57:50.290Z,1.00
2023-12-23T07:58:53.669Z,0.92
2023-12-23T07:59:56.686Z,0.87
2023-12-23T08:00:59.705Z,0.92
2023-12-23T08:02:02.813Z,1.03
2023-12-23T08:03:05.992Z,1.17
2023-12-23T08:04:09.091Z,0.83
2023-12-23T08:05:14.203Z,0.93
2023-12-23T08:06:20.060Z,1.08
2023-12-23T08:07:23.360Z,0.88
2023-12-23T08:08:26.515Z,0.85
2023-12-23T08:09:29.827Z,0.90
2023-12-23T08:10:32.816Z,1.15
2023-12-23T08:11:38.360Z,1.32
2023-12-23T08:12:41.323Z,1.07
2023-12-23T08:13:44.380Z,1.03
2023-12-23T08:14:47.355Z,1.27
2023-12-23T08:15:50.334Z,1.17
2023-12-23T08:16:53.772Z,1.03
2023-12-23T08:17:56.940Z,1.02
2023-12-23T08:19:00.003Z,1.23
2023-12-23T08:20:03.213Z,1.07
2023-12-23T08:21:07.532Z,1.15
2023-12-23T08:22:10.505Z,1.15
2023-12-23T08:23:13.561Z,1.05
2023-12-23T08:24:16.597Z,0.92
2023-12-23T08:25:19.697Z,1.08
2023-12-23T08:26:22.902Z,0.97
2023-12-23T08:27:26.105Z,1.10
2023-12-23T08:28:29.133Z,1.25
2023-12-23T08:29:32.260Z,1.23
2023-12-23T08:30:35.408Z,1.27
2023-12-23T08:31:45.919Z,1.05
2023-12-23T08:32:49.475Z,1.10
2023-12-23T08:33:52.772Z,1.23
2023-12-23T08:34:55.843Z,1.05
2023-12-23T08:35:58.988Z,1.08
2023-12-23T08:37:01.987Z,1.35
2023-12-23T08:38:05.521Z,1.40
2023-12-23T08:39:08.584Z,1.17
2023-12-23T08:40:12.022Z,1.20
2023-12-23T08:41:15.131Z,1.25
2023-12-23T08:42:18.235Z,1.27
2023-12-23T08:43:21.230Z,1.28
2023-12-23T08:44:24.309Z,1.32
2023-12-23T08:45:27.491Z,1.25
2023-12-23T08:46:31.621Z,1.33
2023-12-23T08:47:35.093Z,1.38
2023-12-23T08:48:38.879Z,1.27
2023-12-23T08:49:42.032Z,1.35
2023-12-23T08:50:45.023Z,1.47
2023-12-23T08:51:47.994Z,1.42
2023-12-23T08:52:51.429Z,1.52
2023-12-23T08:53:54.433Z,1.62
2023-12-23T08:54:57.505Z,1.47
2023-12-23T08:56:00.937Z,1.43
2023-12-23T08:57:04.244Z,1.43
2023-12-23T08:58:07.247Z,1.47
2023-12-23T08:59:10.265Z,1.20
2023-12-23T09:00:14.214Z,1.48
2023-12-23T09:01:18.418Z,1.42
2023-12-23T09:02:23.773Z,1.43
2023-12-23T09:03:30.246Z,1.62
2023-12-23T09:04:33.396Z,1.58
2023-12-23T09:05:36.455Z,1.38
2023-12-23T09:06:39.464Z,1.27
2023-12-23T09:07:42.572Z,1.42
2023-12-23T09:08:45.713Z,1.35
2023-12-23T09:09:48.791Z,1.10
2023-12-23T09:10:52.141Z,1.13
2023-12-23T09:11:55.202Z,1.10
2023-12-23T09:12:58.205Z,1.25
2023-12-23T09:14:01.222Z,1.35
2023-12-23T09:15:05.065Z,1.32
2023-12-23T09:16:08.171Z,1.37
2023-12-23T09:17:11.238Z,1.32
2023-12-23T09:18:14.344Z,1.30
2023-12-23T09:19:17.561Z,1.37
2023-12-23T09:20:20.602Z,1.30
2023-12-23T09:21:23.623Z,1.40
2023-12-23T09:22:26.695Z,1.25
2023-12-23T09:23:29.785Z,1.40
2023-12-23T09:24:32.809Z,1.48
2023-12-23T09:25:35.821Z,1.35
2023-12-23T09:26:38.862Z,1.55
2023-12-23T09:27:41.850Z,1.25
2023-12-23T09:28:44.843Z,1.63
2023-12-23T09:29:47.858Z,1.35
2023-12-23T09:30:50.950Z,1.48
2023-12-23T09:31:54.034Z,1.45
2023-12-23T09:32:58.182Z,1.58
2023-12-23T09:34:01.508Z,1.43
2023-12-23T09:35:06.237Z,1.52
2023-12-23T09:36:09.632Z,1.50
2023-12-23T09:37:12.617Z,1.28
2023-12-23T09:38:15.656Z,1.27
2023-12-23T09:39:18.664Z,1.25
2023-12-23T09:40:21.707Z,1.23
2023-12-23T09:41:24.840Z,1.43
2023-12-23T09:42:29.440Z,1.52
2023-12-23T09:43:34.164Z,1.52
2023-12-23T09:44:37.208Z,1.35
2023-12-23T09:45:43.143Z,1.32
2023-12-23T09:46:46.187Z,1.42
2023-12-23T09:48:52.344Z,1.23
2023-12-23T09:49:55.381Z,1.53
2023-12-23T09:50:58.379Z,1.40
2023-12-23T09:52:01.366Z,1.53
2023-12-23T09:53:05.967Z,1.75
2023-12-23T09:54:15.906Z,1.67
2023-12-23T09:55:19.899Z,1.80
2023-12-23T09:56:23.305Z,1.75
2023-12-23T09:57:28.149Z,1.72
2023-12-23T09:58:31.509Z,2.22
2023-12-23T09:59:35.214Z,1.90
2023-12-23T10:00:39.226Z,1.87
2023-12-23T10:01:42.612Z,1.97
2023-12-23T10:02:45.599Z,1.65
2023-12-23T10:03:48.779Z,1.70
2023-12-23T10:04:51.895Z,2.10
2023-12-23T10:05:55.921Z,2.23
2023-12-23T10:06:59.031Z,1.92
2023-12-23T10:08:02.212Z,1.83
2023-12-23T10:09:05.286Z,2.10
2023-12-23T10:10:09.156Z,2.17
2023-12-23T10:11:12.445Z,2.10
2023-12-23T10:12:15.469Z,1.80
2023-12-23T10:13:18.476Z,1.63
2023-12-23T10:14:22.454Z,1.95
2023-12-23T10:16:48.584Z,2.03
2023-12-23T10:17:51.960Z,2.35
2023-12-23T10:18:57.640Z,1.95
2023-12-23T10:20:00.798Z,1.60
2023-12-23T10:21:05.685Z,1.83
2023-12-23T10:22:08.686Z,1.95
2023-12-23T10:23:11.829Z,1.80
2023-12-23T10:24:14.853Z,1.92
2023-12-23T10:25:17.880Z,1.75
2023-12-23T10:26:20.983Z,1.32
2023-12-23T10:27:28.225Z,1.58
2023-12-23T10:28:31.292Z,1.97
2023-12-23T10:29:36.433Z,1.83
2023-12-23T10:30:41.307Z,1.98
2023-12-23T10:31:51.681Z,1.93
2023-12-23T10:32:59.938Z,1.70
2023-12-23T10:34:11.839Z,1.72
2023-12-23T10:35:17.357Z,2.05
2023-12-23T10:36:20.886Z,1.85
2023-12-23T10:37:26.152Z,9.63
2023-12-23T10:38:32.041Z,8.57
2023-12-23T10:39:44.617Z,4.47
2023-12-23T10:40:55.636Z,2.90
2023-12-23T10:42:13.423Z,5.47
2023-12-23T10:43:17.399Z,2.85
2023-12-23T10:44:21.720Z,2.00
2023-12-23T10:45:24.868Z,2.25
2023-12-23T10:46:28.449Z,1.92
2023-12-23T10:47:34.656Z,1.78
2023-12-23T10:48:39.430Z,1.82
2023-12-23T10:49:47.634Z,1.78
2023-12-23T10:50:52.498Z,1.88
2023-12-23T10:51:58.586Z,2.13
2023-12-23T10:53:03.363Z,2.18
2023-12-23T10:54:12.144Z,1.88
2023-12-23T10:55:17.092Z,1.88
2023-12-23T10:56:20.103Z,2.05
2023-12-23T10:57:24.379Z,2.17
2023-12-23T10:58:30.757Z,2.03
2023-12-23T10:59:34.015Z,1.67
2023-12-23T11:00:40.034Z,1.67
2023-12-23T11:01:46.818Z,1.55
2023-12-23T11:02:53.312Z,1.82
2023-12-23T11:04:01.487Z,2.00
2023-12-23T11:05:09.304Z,2.07
2023-12-23T11:06:14.365Z,1.92
2023-12-23T11:07:21.098Z,1.62
2023-12-23T11:08:26.795Z,1.55
2023-12-23T11:09:32.334Z,1.72
2023-12-23T11:10:37.310Z,1.62
2023-12-23T11:11:42.216Z,1.97
2023-12-23T11:12:45.354Z,1.92
2023-12-23T11:13:48.380Z,1.82
2023-12-23T11:14:51.583Z,1.83
2023-12-23T11:15:57.061Z,1.78
2023-12-23T11:17:00.384Z,1.92
2023-12-23T11:18:04.982Z,1.88
2023-12-23T11:19:09.806Z,1.85
2023-12-23T11:20:51.562Z,1.95
2023-12-23T11:22:29.410Z,1.65
2023-12-23T11:23:36.622Z,1.77
2023-12-23T11:24:39.809Z,1.43
2023-12-23T11:25:44.066Z,1.75
2023-12-23T11:26:54.001Z,1.47
2023-12-23T11:28:10.217Z,1.43
2023-12-23T11:29:16.174Z,1.52
2023-12-23T11:30:20.044Z,1.17
2023-12-23T11:31:23.124Z,1.27
2023-12-23T11:32:27.019Z,1.27
2023-12-23T11:33:35.984Z,1.68
2023-12-23T11:34:42.036Z,1.70
2023-12-23T11:35:51.207Z,1.43
2023-12-23T11:36:54.243Z,1.18
2023-12-23T11:37:57.450Z,1.42
2023-12-23T11:39:00.633Z,1.42
2023-12-23T11:40:04.763Z,1.43
2023-12-23T11:41:08.023Z,1.38
2023-12-23T11:42:14.205Z,1.33
2023-12-23T11:43:17.610Z,1.12
2023-12-23T11:44:20.616Z,1.13
2023-12-23T11:45:23.630Z,1.13
2023-12-23T11:46:27.313Z,0.97
2023-12-23T11:47:30.905Z,0.95
2023-12-23T11:48:34.076Z,1.20
2023-12-23T11:49:40.994Z,1.02
2023-12-23T11:50:43.994Z,0.88
2023-12-23T11:51:46.985Z,1.05
2023-12-23T11:52:50.415Z,1.10
2023-12-23T11:53:57.179Z,1.08
2023-12-23T11:55:00.911Z,1.18
2023-12-23T11:56:05.917Z,1.32
2023-12-23T11:57:08.927Z,1.27
2023-12-23T11:58:12.116Z,1.23
2023-12-23T11:59:15.289Z,1.27
2023-12-23T12:00:20.286Z,1.33
2023-12-23T12:01:23.307Z,1.32
2023-12-23T12:02:27.173Z,1.35
2023-12-23T12:03:30.307Z,1.23
2023-12-23T12:04:33.317Z,1.32
2023-12-23T12:05:36.406Z,1.38
2023-12-23T12:06:39.735Z,1.48
2023-12-23T12:07:42.785Z,1.77
2023-12-23T12:08:46.840Z,1.32
2023-12-23T12:09:51.910Z,1.18
2023-12-23T12:11:03.078Z,1.37
2023-12-23T12:12:07.905Z,1.52
2023-12-23T12:13:11.661Z,1.53
2023-12-23T12:14:14.691Z,1.45
2023-12-23T12:15:17.695Z,1.57
2023-12-23T12:16:20.680Z,1.45
2023-12-23T12:17:25.534Z,1.78
2023-12-23T12:18:28.694Z,1.42
2023-12-23T12:19:31.801Z,1.95
2023-12-23T12:20:35.051Z,1.97
2023-12-23T12:21:38.049Z,1.87
2023-12-23T12:22:48.438Z,1.95
2023-12-23T12:23:52.931Z,2.33
2023-12-23T12:24:55.952Z,2.48
2023-12-23T12:25:59.558Z,2.58
2023-12-23T12:27:03.758Z,2.58
2023-12-23T12:28:07.999Z,2.60
2023-12-23T12:29:11.326Z,2.53
2023-12-23T12:30:14.416Z,2.30
2023-12-23T12:31:18.623Z,2.62
2023-12-23T12:32:24.144Z,2.65
2023-12-23T12:33:27.271Z,2.45
2023-12-23T12:34:30.627Z,2.63
2023-12-23T12:35:35.434Z,2.60
2023-12-23T12:36:38.760Z,2.90
2023-12-23T12:37:42.571Z,15.23
2023-12-23T12:38:46.349Z,11.63
2023-12-23T12:39:49.445Z,10.10
2023-12-23T12:40:52.950Z,9.82
2023-12-23T12:41:56.041Z,4.73
2023-12-23T12:42:59.034Z,3.52
2023-12-23T12:44:02.153Z,2.93
2023-12-23T12:45:06.709Z,2.75
2023-12-23T12:46:10.759Z,2.98
2023-12-23T12:47:13.959Z,3.30
2023-12-23T12:48:17.329Z,2.90
2023-12-23T12:49:23.460Z,3.07
2023-12-23T12:50:28.412Z,3.33
2023-12-23T12:51:31.773Z,3.27
2023-12-23T12:52:36.707Z,3.87
2023-12-23T12:53:39.818Z,4.03
2023-12-23T12:54:43.926Z,3.68
2023-12-23T12:55:46.929Z,2.82
2023-12-23T12:56:49.950Z,2.82
2023-12-23T12:57:52.923Z,3.18
2023-12-23T12:58:56.001Z,3.33
2023-12-23T13:00:00.463Z,3.45
2023-12-23T13:01:04.021Z,3.60
2023-12-23T13:02:08.923Z,3.42
2023-12-23T13:03:12.906Z,3.30
2023-12-23T13:04:15.923Z,2.82
2023-12-23T13:05:19.112Z,2.67
2023-12-23T13:06:22.220Z,3.12
2023-12-23T13:07:25.358Z,4.93
2023-12-23T13:08:28.385Z,4.33
2023-12-23T13:09:31.488Z,3.12
2023-12-23T13:10:34.450Z,3.08
2023-12-23T13:11:37.909Z,2.73
2023-12-23T13:12:40.903Z,2.92
2023-12-23T13:13:46.081Z,2.62
2023-12-23T13:14:49.333Z,2.67
2023-12-23T13:15:54.822Z,2.55
2023-12-23T13:16:57.783Z,2.40
2023-12-23T13:18:01.040Z,2.02
2023-12-23T13:19:04.113Z,2.20
2023-12-23T13:20:09.175Z,2.03
2023-12-23T13:21:12.449Z,1.82
2023-12-23T13:22:15.418Z,2.15
2023-12-23T13:23:18.430Z,2.38
2023-12-23T13:24:21.453Z,2.03
2023-12-23T13:25:24.433Z,2.10
2023-12-23T13:26:27.429Z,2.03
2023-12-23T13:27:30.411Z,2.00
2023-12-23T13:28:33.383Z,2.27
2023-12-23T13:29:36.994Z,2.22
2023-12-23T13:30:40.100Z,2.03
2023-12-23T13:31:43.126Z,1.63
2023-12-23T13:32:46.143Z,1.73
2023-12-23T13:33:49.379Z,1.87
2023-12-23T13:34:52.417Z,1.97
2023-12-23T13:35:55.384Z,2.23
2023-12-23T13:36:58.401Z,2.18
2023-12-23T13:38:01.511Z,2.45
2023-12-23T13:39:11.561Z,2.35
2023-12-23T13:40:14.793Z,2.65
2023-12-23T13:41:26.558Z,3.08
2023-12-23T13:42:29.694Z,2.95
2023-12-23T13:43:32.666Z,2.67
2023-12-23T13:44:37.090Z,3.00
2023-12-23T13:45:40.204Z,3.18
2023-12-23T13:46:43.178Z,2.87
2023-12-23T13:47:46.338Z,3.12
2023-12-23T13:48:49.714Z,3.13
2023-12-23T13:49:52.967Z,3.30
2023-12-23T13:50:56.028Z,3.50
2023-12-23T13:51:58.991Z,3.70
2023-12-23T13:53:02.847Z,4.58
2023-12-23T13:54:06.846Z,5.10
2023-12-23T13:56:15.345Z,6.25
2023-12-23T13:57:18.365Z,5.82
2023-12-23T13:58:21.355Z,7.38
2023-12-23T13:59:24.440Z,8.87
2023-12-23T14:00:27.472Z,12.20
2023-12-23T14:01:30.455Z,11.58
2023-12-23T14:02:33.485Z,9.42
2023-12-23T14:03:36.869Z,8.80
2023-12-23T14:04:40.120Z,7.15
2023-12-23T14:05:44.172Z,7.02
2023-12-23T14:06:47.279Z,8.32
2023-12-23T14:07:50.307Z,12.18
2023-12-23T14:08:54.253Z,15.72
2023-12-23T14:09:57.252Z,11.60
2023-12-23T14:11:00.421Z,9.22
2023-12-23T14:12:03.722Z,8.32
2023-12-23T14:13:07.416Z,8.45
2023-12-23T14:14:11.220Z,8.23
2023-12-23T14:15:14.246Z,9.32
2023-12-23T14:16:19.338Z,8.75
2023-12-23T14:17:22.769Z,9.17